24XS weather

Furst Ranch Heliport
Argyle, Texas, United States

Public forecast

Using degrees Fahrenheit for public forecast. Weather courtesy of forecast.io.

METAR (pilot weather report)

Closest report is Denton Municipal Airport, 7.5 nm (14.0 km) N. Retrieved 2019/07/19 15:53 UTC (27 minutes ago):

KDTO 191553Z 21017G24KT 10SM CLR 32/19 A2998 RMK AO2 SLP140 T03170194

TAF (pilot weather forecast)

Closest forecast is Fort Worth Alliance Airport, 8.7 nm (16.1 km) SW. Retrieved 2019/07/19 12:36 UTC (4 hours ago):

TAF KAFW 191135Z 1912/2012 17015KT P6SM FEW050